Time;durP1;ratioP1;P1;durP2;ratioP2;P2;SDS_P1;SDS_P2;PMS_P1;PMS_P2;Temp;Humidity;BMP_temperature;BMP_pressure;BME280_temperature;BME280_humidity;BME280_pressure;Samples;Min_cycle;Max_cycle;Signal;HPM_P1;HPM_P2
2020/02/01 00:00:29;;;;;;;3.65;3.25;;;;;;;7.17;95.45605;95024.33;;;;
2020/02/01 00:01:31;;;;;;;3.65;3.25;;;;;;;7.17;95.45605;95024.33;;;;
2020/02/01 00:02:32;;;;;;;3.65;3.25;;;;;;;7.17;95.45605;95024.33;;;;
2020/02/01 00:03:41;;;;;;;3.65;3.25;;;;;;;7.17;95.45605;95024.33;;;;
2020/02/01 00:04:41;;;;;;;3.65;3.25;;;;;;;7.17;95.45605;95024.33;;;;
2020/02/01 00:05:42;;;;;;;3.65;3.25;;;;;;;7.17;95.45605;95024.33;;;;
2020/02/01 00:06:42;;;;;;;3.65;3.25;;;;;;;7.17;95.45605;95024.33;;;;
2020/02/01 00:07:43;;;;;;;3.65;3.25;;;;;;;7.17;95.45605;95024.33;;;;
2020/02/01 00:08:43;;;;;;;3.65;3.25;;;;;;;7.17;95.45605;95024.33;;;;
2020/02/01 00:09:44;;;;;;;3.65;3.25;;;;;;;7.17;95.45605;95024.33;;;;
2020/02/01 00:10:46;;;;;;;3.65;3.25;;;;;;;7.17;95.45605;95024.33;;;;
2020/02/01 00:11:46;;;;;;;3.65;3.25;;;;;;;7.17;95.45605;95024.33;;;;
2020/02/01 00:12:47;;;;;;;3.65;3.25;;;;;;;7.17;95.45605;95024.33;;;;
2020/02/01 00:13:48;;;;;;;3.65;3.25;;;;;;;7.17;95.45605;95024.33;;;;
2020/02/01 00:14:49;;;;;;;3.65;3.25;;;;;;;7.17;95.45605;95024.33;;;;
2020/02/01 00:15:49;;;;;;;3.5;3.15;;;;;;;7.11;95.82324;95009.94;;;;
2020/02/01 00:16:54;;;;;;;3.5;3.15;;;;;;;7.11;95.82324;95009.94;;;;
2020/02/01 00:17:54;;;;;;;3.5;3.15;;;;;;;7.11;95.82324;95009.94;;;;
2020/02/01 00:18:56;;;;;;;3.5;3.15;;;;;;;7.11;95.82324;95009.94;;;;
2020/02/01 00:19:57;;;;;;;3.5;3.15;;;;;;;7.11;95.82324;95009.94;;;;
2020/02/01 00:20:57;;;;;;;3.5;3.15;;;;;;;7.11;95.82324;95009.94;;;;
2020/02/01 00:21:59;;;;;;;3.5;3.15;;;;;;;7.11;95.82324;95009.94;;;;
2020/02/01 00:22:59;;;;;;;3.5;3.15;;;;;;;7.11;95.82324;95009.94;;;;
2020/02/01 00:24:01;;;;;;;3.5;3.15;;;;;;;7.11;95.82324;95009.94;;;;
2020/02/01 00:25:01;;;;;;;3.5;3.15;;;;;;;7.11;95.82324;95009.94;;;;
2020/02/01 00:26:02;;;;;;;3.5;3.15;;;;;;;7.11;95.82324;95009.94;;;;
2020/02/01 00:27:03;;;;;;;3.5;3.15;;;;;;;7.11;95.82324;95009.94;;;;
2020/02/01 00:28:04;;;;;;;3.5;3.15;;;;;;;7.11;95.82324;95009.94;;;;
2020/02/01 00:29:04;;;;;;;3.5;3.15;;;;;;;7.11;95.82324;95009.94;;;;
2020/02/01 00:30:05;;;;;;;3.5;3.15;;;;;;;7.11;95.82324;95009.94;;;;
2020/02/01 00:39:21;;;;;;;3.35;3.05;;;;;;;6.88;95.9082;95011.08;;;;
2020/02/01 00:40:22;;;;;;;3.35;3.05;;;;;;;6.88;95.9082;95011.08;;;;
2020/02/01 00:41:27;;;;;;;3.35;3.05;;;;;;;6.88;95.9082;95011.08;;;;
2020/02/01 00:42:28;;;;;;;3.35;3.05;;;;;;;6.88;95.9082;95011.08;;;;
2020/02/01 00:43:28;;;;;;;3.35;3.05;;;;;;;6.88;95.9082;95011.08;;;;
2020/02/01 00:44:29;;;;;;;3.35;3.05;;;;;;;6.88;95.9082;95011.08;;;;
2020/02/01 00:45:30;;;;;;;3.35;3.05;;;;;;;6.88;95.9082;95011.08;;;;
2020/02/01 00:46:30;;;;;;;3.35;3.05;;;;;;;6.88;95.9082;95011.08;;;;
2020/02/01 00:47:31;;;;;;;3.35;3.05;;;;;;;6.88;95.9082;95011.08;;;;
2020/02/01 00:48:31;;;;;;;3.8;3.25;;;;;;;6.65;96.01465;95002.4;;;;
2020/02/01 00:49:32;;;;;;;3.8;3.25;;;;;;;6.65;96.01465;95002.4;;;;
2020/02/01 00:50:32;;;;;;;3.8;3.25;;;;;;;6.65;96.01465;95002.4;;;;
2020/02/01 00:51:33;;;;;;;3.8;3.25;;;;;;;6.65;96.01465;95002.4;;;;
2020/02/01 00:52:33;;;;;;;3.8;3.25;;;;;;;6.65;96.01465;95002.4;;;;
2020/02/01 00:53:41;;;;;;;3.8;3.25;;;;;;;6.65;96.01465;95002.4;;;;
2020/02/01 00:54:41;;;;;;;3.8;3.25;;;;;;;6.65;96.01465;95002.4;;;;
2020/02/01 00:55:42;;;;;;;3.8;3.25;;;;;;;6.65;96.01465;95002.4;;;;
2020/02/01 00:56:42;;;;;;;3.8;3.25;;;;;;;6.65;96.01465;95002.4;;;;
2020/02/01 00:57:43;;;;;;;3.8;3.25;;;;;;;6.65;96.01465;95002.4;;;;
2020/02/01 00:58:43;;;;;;;3.7;3.35;;;;;;;6.55;96.18359;95011.47;;;;
2020/02/01 00:59:45;;;;;;;3.7;3.35;;;;;;;6.55;96.18359;95011.47;;;;
2020/02/01 01:00:46;;;;;;;3.7;3.35;;;;;;;6.55;96.18359;95011.47;;;;
2020/02/01 01:01:49;;;;;;;3.7;3.35;;;;;;;6.55;96.18359;95011.47;;;;
2020/02/01 01:02:50;;;;;;;3.7;3.35;;;;;;;6.55;96.18359;95011.47;;;;
2020/02/01 01:03:51;;;;;;;3.7;3.35;;;;;;;6.55;96.18359;95011.47;;;;
2020/02/01 01:04:54;;;;;;;3.7;3.35;;;;;;;6.55;96.18359;95011.47;;;;
2020/02/01 01:05:55;;;;;;;3.7;3.35;;;;;;;6.55;96.18359;95011.47;;;;
2020/02/01 01:06:55;;;;;;;3.7;3.35;;;;;;;6.55;96.18359;95011.47;;;;
2020/02/01 01:07:56;;;;;;;3.7;3.35;;;;;;;6.55;96.18359;95011.47;;;;
2020/02/01 01:09:13;;;;;;;3.35;3.05;;;;;;;6.3;96.09766;95026.98;;;;
2020/02/01 01:10:56;;;;;;;3.35;3.05;;;;;;;6.3;96.09766;95026.98;;;;
2020/02/01 01:14:56;;;;;;;3.35;3.05;;;;;;;6.3;96.09766;95026.98;;;;
2020/02/01 01:15:56;;;;;;;3.35;3.05;;;;;;;6.3;96.09766;95026.98;;;;
2020/02/01 01:16:56;;;;;;;3.35;3.05;;;;;;;6.3;96.09766;95026.98;;;;
2020/02/01 01:17:57;;;;;;;3.35;3.05;;;;;;;6.3;96.09766;95026.98;;;;
2020/02/01 01:18:58;;;;;;;3.35;3.05;;;;;;;6.3;96.09766;95026.98;;;;
2020/02/01 01:19:58;;;;;;;4;3.6;;;;;;;6.06;96.2959;95015.8;;;;
2020/02/01 01:20:59;;;;;;;4;3.6;;;;;;;6.06;96.2959;95015.8;;;;
2020/02/01 01:22:00;;;;;;;4;3.6;;;;;;;6.06;96.2959;95015.8;;;;
2020/02/01 01:23:00;;;;;;;4;3.6;;;;;;;6.06;96.2959;95015.8;;;;
2020/02/01 01:24:01;;;;;;;4;3.6;;;;;;;6.06;96.2959;95015.8;;;;
2020/02/01 01:25:02;;;;;;;4;3.6;;;;;;;6.06;96.2959;95015.8;;;;
2020/02/01 01:26:02;;;;;;;4;3.6;;;;;;;6.06;96.2959;95015.8;;;;
2020/02/01 01:27:03;;;;;;;4;3.6;;;;;;;6.06;96.2959;95015.8;;;;
2020/02/01 01:28:03;;;;;;;4;3.6;;;;;;;6.06;96.2959;95015.8;;;;
2020/02/01 01:29:05;;;;;;;4;3.6;;;;;;;6.06;96.2959;95015.8;;;;
2020/02/01 01:30:13;;;;;;;4;3.6;;;;;;;6.06;96.2959;95015.8;;;;
2020/02/01 01:31:30;;;;;;;4.149999;3.75;;;;;;;5.9;96.55469;94997.55;;;;
2020/02/01 01:32:37;;;;;;;4.149999;3.75;;;;;;;5.9;96.55469;94997.55;;;;
2020/02/01 01:33:49;;;;;;;4.149999;3.75;;;;;;;5.9;96.55469;94997.55;;;;
2020/02/01 01:34:53;;;;;;;4.149999;3.75;;;;;;;5.9;96.55469;94997.55;;;;
2020/02/01 01:35:53;;;;;;;4.149999;3.75;;;;;;;5.9;96.55469;94997.55;;;;
2020/02/01 01:36:56;;;;;;;4.149999;3.75;;;;;;;5.9;96.55469;94997.55;;;;
2020/02/01 01:37:57;;;;;;;4.149999;3.75;;;;;;;5.9;96.55469;94997.55;;;;
2020/02/01 01:38:57;;;;;;;4.149999;3.75;;;;;;;5.9;96.55469;94997.55;;;;
2020/02/01 01:39:58;;;;;;;4.149999;3.75;;;;;;;5.9;96.55469;94997.55;;;;
2020/02/01 01:40:59;;;;;;;4.050001;3.7;;;;;;;5.81;96.6748;94996.41;;;;
2020/02/01 01:41:59;;;;;;;4.050001;3.7;;;;;;;5.81;96.6748;94996.41;;;;
2020/02/01 01:42:59;;;;;;;4.050001;3.7;;;;;;;5.81;96.6748;94996.41;;;;
2020/02/01 01:44:00;;;;;;;4.050001;3.7;;;;;;;5.81;96.6748;94996.41;;;;
2020/02/01 01:45:01;;;;;;;4.050001;3.7;;;;;;;5.81;96.6748;94996.41;;;;
2020/02/01 01:46:01;;;;;;;4.050001;3.7;;;;;;;5.81;96.6748;94996.41;;;;
2020/02/01 01:47:02;;;;;;;4.050001;3.7;;;;;;;5.81;96.6748;94996.41;;;;
2020/02/01 01:48:02;;;;;;;4.050001;3.7;;;;;;;5.81;96.6748;94996.41;;;;
2020/02/01 01:49:03;;;;;;;4.050001;3.7;;;;;;;5.81;96.6748;94996.41;;;;
2020/02/01 01:50:03;;;;;;;4.050001;3.7;;;;;;;5.81;96.6748;94996.41;;;;
2020/02/01 01:51:04;;;;;;;4.050001;3.7;;;;;;;5.81;96.6748;94996.41;;;;
2020/02/01 01:52:05;;;;;;;4.050001;3.7;;;;;;;5.81;96.6748;94996.41;;;;
2020/02/01 01:53:05;;;;;;;4.050001;3.7;;;;;;;5.81;96.6748;94996.41;;;;
2020/02/01 01:54:06;;;;;;;4.050001;3.7;;;;;;;5.81;96.6748;94996.41;;;;
2020/02/01 01:55:06;;;;;;;4.050001;3.7;;;;;;;5.81;96.6748;94996.41;;;;
2020/02/01 01:56:07;;;;;;;4.050001;3.7;;;;;;;5.81;96.6748;94996.41;;;;
2020/02/01 01:57:07;;;;;;;4.050001;3.7;;;;;;;5.81;96.6748;94996.41;;;;
2020/02/01 01:58:08;;;;;;;4.050001;3.7;;;;;;;5.81;96.6748;94996.41;;;;
2020/02/01 01:59:08;;;;;;;4.050001;3.7;;;;;;;5.81;96.6748;94996.41;;;;
2020/02/01 02:00:09;;;;;;;4.050001;3.7;;;;;;;5.81;96.6748;94996.41;;;;
2020/02/01 02:01:24;;;;;;;4.050001;3.7;;;;;;;5.81;96.6748;94996.41;;;;
2020/02/01 02:02:29;;;;;;;6;5.4;;;;;;;5.54;96.47461;94948.56;;;;
2020/02/01 02:03:30;;;;;;;6;5.4;;;;;;;5.54;96.47461;94948.56;;;;
2020/02/01 02:04:52;;;;;;;6;5.4;;;;;;;5.54;96.47461;94948.56;;;;
2020/02/01 02:05:52;;;;;;;6;5.4;;;;;;;5.54;96.47461;94948.56;;;;
2020/02/01 02:06:53;;;;;;;6;5.4;;;;;;;5.54;96.47461;94948.56;;;;
2020/02/01 02:07:54;;;;;;;6;5.4;;;;;;;5.54;96.47461;94948.56;;;;
2020/02/01 02:08:55;;;;;;;6;5.4;;;;;;;5.54;96.47461;94948.56;;;;
2020/02/01 02:09:55;;;;;;;6;5.4;;;;;;;5.54;96.47461;94948.56;;;;
2020/02/01 02:10:56;;;;;;;6;5.4;;;;;;;5.54;96.47461;94948.56;;;;
2020/02/01 02:11:56;;;;;;;6;5.4;;;;;;;5.54;96.47461;94948.56;;;;
2020/02/01 02:12:58;;;;;;;6;5.4;;;;;;;5.54;96.47461;94948.56;;;;
2020/02/01 02:13:58;;;;;;;7.200001;6.500001;;;;;;;5.37;96.85742;94934.83;;;;
2020/02/01 02:14:59;;;;;;;7.200001;6.500001;;;;;;;5.37;96.85742;94934.83;;;;
2020/02/01 02:15:59;;;;;;;7.200001;6.500001;;;;;;;5.37;96.85742;94934.83;;;;
2020/02/01 02:16:59;;;;;;;7.200001;6.500001;;;;;;;5.37;96.85742;94934.83;;;;
2020/02/01 02:18:00;;;;;;;7.200001;6.500001;;;;;;;5.37;96.85742;94934.83;;;;
2020/02/01 02:19:00;;;;;;;7.200001;6.500001;;;;;;;5.37;96.85742;94934.83;;;;
2020/02/01 02:20:01;;;;;;;7.200001;6.500001;;;;;;;5.37;96.85742;94934.83;;;;
2020/02/01 02:21:02;;;;;;;7.200001;6.500001;;;;;;;5.37;96.85742;94934.83;;;;
2020/02/01 02:22:03;;;;;;;7.200001;6.500001;;;;;;;5.37;96.85742;94934.83;;;;
2020/02/01 02:23:03;;;;;;;7.200001;6.500001;;;;;;;5.37;96.85742;94934.83;;;;
2020/02/01 02:24:04;;;;;;;5.450001;4.95;;;;;;;5.22;97.01465;94932.92;;;;
2020/02/01 02:25:05;;;;;;;5.450001;4.95;;;;;;;5.22;97.01465;94932.92;;;;
2020/02/01 02:26:06;;;;;;;5.450001;4.95;;;;;;;5.22;97.01465;94932.92;;;;
2020/02/01 02:27:06;;;;;;;5.450001;4.95;;;;;;;5.22;97.01465;94932.92;;;;
2020/02/01 02:28:08;;;;;;;5.450001;4.95;;;;;;;5.22;97.01465;94932.92;;;;
2020/02/01 02:29:09;;;;;;;5.450001;4.95;;;;;;;5.22;97.01465;94932.92;;;;
2020/02/01 02:30:09;;;;;;;5.450001;4.95;;;;;;;5.22;97.01465;94932.92;;;;
2020/02/01 02:31:15;;;;;;;5.450001;4.95;;;;;;;5.22;97.01465;94932.92;;;;
2020/02/01 02:32:15;;;;;;;5.450001;4.95;;;;;;;5.22;97.01465;94932.92;;;;
2020/02/01 02:33:15;;;;;;;5.450001;4.95;;;;;;;5.22;97.01465;94932.92;;;;
2020/02/01 02:34:16;;;;;;;4.9;4.4;;;;;;;4.93;96.98047;94929.83;;;;
2020/02/01 02:35:16;;;;;;;4.9;4.4;;;;;;;4.93;96.98047;94929.83;;;;
2020/02/01 02:36:17;;;;;;;4.9;4.4;;;;;;;4.93;96.98047;94929.83;;;;
2020/02/01 02:37:17;;;;;;;4.9;4.4;;;;;;;4.93;96.98047;94929.83;;;;
2020/02/01 02:38:18;;;;;;;4.9;4.4;;;;;;;4.93;96.98047;94929.83;;;;
2020/02/01 02:39:19;;;;;;;4.9;4.4;;;;;;;4.93;96.98047;94929.83;;;;
2020/02/01 02:40:31;;;;;;;4.9;4.4;;;;;;;4.93;96.98047;94929.83;;;;
2020/02/01 02:41:31;;;;;;;4.9;4.4;;;;;;;4.93;96.98047;94929.83;;;;
2020/02/01 02:42:32;;;;;;;4.9;4.4;;;;;;;4.93;96.98047;94929.83;;;;
2020/02/01 02:43:32;;;;;;;4.9;4.4;;;;;;;4.93;96.98047;94929.83;;;;
2020/02/01 02:44:33;;;;;;;4.9;4.4;;;;;;;4.93;96.98047;94929.83;;;;
2020/02/01 02:45:33;;;;;;;5.1;4.5;;;;;;;4.69;97.07227;94913.64;;;;
2020/02/01 02:46:34;;;;;;;5.1;4.5;;;;;;;4.69;97.07227;94913.64;;;;
2020/02/01 02:47:34;;;;;;;5.1;4.5;;;;;;;4.69;97.07227;94913.64;;;;
2020/02/01 02:48:35;;;;;;;5.1;4.5;;;;;;;4.69;97.07227;94913.64;;;;
2020/02/01 02:49:35;;;;;;;5.1;4.5;;;;;;;4.69;97.07227;94913.64;;;;
2020/02/01 02:50:36;;;;;;;5.1;4.5;;;;;;;4.69;97.07227;94913.64;;;;
2020/02/01 02:51:36;;;;;;;5.1;4.5;;;;;;;4.69;97.07227;94913.64;;;;
2020/02/01 02:52:37;;;;;;;5.1;4.5;;;;;;;4.69;97.07227;94913.64;;;;
2020/02/01 02:53:37;;;;;;;5.1;4.5;;;;;;;4.69;97.07227;94913.64;;;;
2020/02/01 02:54:37;;;;;;;5.1;4.5;;;;;;;4.69;97.07227;94913.64;;;;
2020/02/01 02:55:38;;;;;;;5;4.5;;;;;;;4.42;97.14746;94901.34;;;;
2020/02/01 02:56:38;;;;;;;5;4.5;;;;;;;4.42;97.14746;94901.34;;;;
2020/02/01 02:57:39;;;;;;;5;4.5;;;;;;;4.42;97.14746;94901.34;;;;
2020/02/01 02:58:39;;;;;;;5;4.5;;;;;;;4.42;97.14746;94901.34;;;;
2020/02/01 02:59:40;;;;;;;5;4.5;;;;;;;4.42;97.14746;94901.34;;;;
2020/02/01 03:00:40;;;;;;;5;4.5;;;;;;;4.42;97.14746;94901.34;;;;
2020/02/01 03:01:41;;;;;;;5;4.5;;;;;;;4.42;97.14746;94901.34;;;;
2020/02/01 03:02:41;;;;;;;5;4.5;;;;;;;4.42;97.14746;94901.34;;;;
2020/02/01 03:03:41;;;;;;;5;4.5;;;;;;;4.42;97.14746;94901.34;;;;
2020/02/01 03:04:42;;;;;;;5;4.5;;;;;;;4.42;97.14746;94901.34;;;;
2020/02/01 03:05:42;;;;;;;5;4.5;;;;;;;4.42;97.14746;94901.34;;;;
2020/02/01 03:06:43;;;;;;;5.150001;4.6;;;;;;;4.24;97.27637;94898.78;;;;
2020/02/01 03:07:43;;;;;;;5.150001;4.6;;;;;;;4.24;97.27637;94898.78;;;;
2020/02/01 03:08:44;;;;;;;5.150001;4.6;;;;;;;4.24;97.27637;94898.78;;;;
2020/02/01 03:09:44;;;;;;;5.150001;4.6;;;;;;;4.24;97.27637;94898.78;;;;
2020/02/01 03:10:45;;;;;;;5.150001;4.6;;;;;;;4.24;97.27637;94898.78;;;;
2020/02/01 03:11:45;;;;;;;5.150001;4.6;;;;;;;4.24;97.27637;94898.78;;;;
2020/02/01 03:12:47;;;;;;;5.150001;4.6;;;;;;;4.24;97.27637;94898.78;;;;
2020/02/01 03:13:48;;;;;;;5.150001;4.6;;;;;;;4.24;97.27637;94898.78;;;;
2020/02/01 03:14:49;;;;;;;5.150001;4.6;;;;;;;4.24;97.27637;94898.78;;;;
2020/02/01 03:15:49;;;;;;;5.150001;4.6;;;;;;;4.24;97.27637;94898.78;;;;
2020/02/01 03:16:50;;;;;;;5.85;5.2;;;;;;;4.03;97.44727;94891.52;;;;
2020/02/01 03:17:50;;;;;;;5.85;5.2;;;;;;;4.03;97.44727;94891.52;;;;
2020/02/01 03:18:51;;;;;;;5.85;5.2;;;;;;;4.03;97.44727;94891.52;;;;
2020/02/01 03:19:51;;;;;;;5.85;5.2;;;;;;;4.03;97.44727;94891.52;;;;
2020/02/01 03:20:52;;;;;;;5.85;5.2;;;;;;;4.03;97.44727;94891.52;;;;
2020/02/01 03:21:52;;;;;;;5.85;5.2;;;;;;;4.03;97.44727;94891.52;;;;
2020/02/01 03:22:53;;;;;;;5.85;5.2;;;;;;;4.03;97.44727;94891.52;;;;
2020/02/01 03:23:53;;;;;;;5.85;5.2;;;;;;;4.03;97.44727;94891.52;;;;
2020/02/01 03:24:54;;;;;;;5.85;5.2;;;;;;;4.03;97.44727;94891.52;;;;
2020/02/01 03:25:54;;;;;;;5.85;5.2;;;;;;;4.03;97.44727;94891.52;;;;
2020/02/01 03:26:55;;;;;;;5.85;5.2;;;;;;;4.03;97.44727;94891.52;;;;
2020/02/01 03:27:55;;;;;;;6.15;5.55;;;;;;;4.01;97.69238;94875.8;;;;
2020/02/01 03:28:56;;;;;;;6.15;5.55;;;;;;;4.01;97.69238;94875.8;;;;
2020/02/01 03:29:56;;;;;;;6.15;5.55;;;;;;;4.01;97.69238;94875.8;;;;
2020/02/01 03:30:57;;;;;;;6.15;5.55;;;;;;;4.01;97.69238;94875.8;;;;
2020/02/01 03:31:57;;;;;;;6.15;5.55;;;;;;;4.01;97.69238;94875.8;;;;
2020/02/01 03:32:57;;;;;;;6.15;5.55;;;;;;;4.01;97.69238;94875.8;;;;
2020/02/01 03:33:58;;;;;;;6.15;5.55;;;;;;;4.01;97.69238;94875.8;;;;
2020/02/01 03:34:59;;;;;;;6.15;5.55;;;;;;;4.01;97.69238;94875.8;;;;
2020/02/01 03:35:59;;;;;;;6.15;5.55;;;;;;;4.01;97.69238;94875.8;;;;
2020/02/01 03:37:00;;;;;;;6.15;5.55;;;;;;;4.01;97.69238;94875.8;;;;
2020/02/01 03:38:00;;;;;;;5.050001;4.550001;;;;;;;4.13;97.95215;94872.8;;;;
2020/02/01 03:39:01;;;;;;;5.050001;4.550001;;;;;;;4.13;97.95215;94872.8;;;;
2020/02/01 03:40:02;;;;;;;5.050001;4.550001;;;;;;;4.13;97.95215;94872.8;;;;
2020/02/01 03:41:02;;;;;;;5.050001;4.550001;;;;;;;4.13;97.95215;94872.8;;;;
2020/02/01 03:42:03;;;;;;;5.050001;4.550001;;;;;;;4.13;97.95215;94872.8;;;;
2020/02/01 03:43:03;;;;;;;5.050001;4.550001;;;;;;;4.13;97.95215;94872.8;;;;
2020/02/01 03:44:04;;;;;;;5.050001;4.550001;;;;;;;4.13;97.95215;94872.8;;;;
2020/02/01 03:45:04;;;;;;;5.050001;4.550001;;;;;;;4.13;97.95215;94872.8;;;;
2020/02/01 03:46:05;;;;;;;5.050001;4.550001;;;;;;;4.13;97.95215;94872.8;;;;
2020/02/01 03:47:13;;;;;;;5.050001;4.550001;;;;;;;4.13;97.95215;94872.8;;;;
2020/02/01 03:48:15;;;;;;;5.050001;4.550001;;;;;;;4.13;97.95215;94872.8;;;;
2020/02/01 03:49:21;;;;;;;4.849999;3.5;;;;;;;4.24;97.75781;94852.97;;;;
2020/02/01 03:50:26;;;;;;;4.849999;3.5;;;;;;;4.24;97.75781;94852.97;;;;
2020/02/01 03:51:39;;;;;;;4.849999;3.5;;;;;;;4.24;97.75781;94852.97;;;;
2020/02/01 03:52:47;;;;;;;4.849999;3.5;;;;;;;4.24;97.75781;94852.97;;;;
2020/02/01 03:54:01;;;;;;;4.849999;3.5;;;;;;;4.24;97.75781;94852.97;;;;
2020/02/01 03:55:04;;;;;;;4.849999;3.5;;;;;;;4.24;97.75781;94852.97;;;;
2020/02/01 03:56:25;;;;;;;4.849999;3.5;;;;;;;4.24;97.75781;94852.97;;;;
2020/02/01 03:57:39;;;;;;;4.849999;3.5;;;;;;;4.24;97.75781;94852.97;;;;
2020/02/01 03:59:01;;;;;;;4.849999;3.5;;;;;;;4.24;97.75781;94852.97;;;;
2020/02/01 04:00:08;;;;;;;3.8;3.35;;;;;;;4.1;97.84082;94841.97;;;;
2020/02/01 04:01:16;;;;;;;3.8;3.35;;;;;;;4.1;97.84082;94841.97;;;;
2020/02/01 04:02:19;;;;;;;3.8;3.35;;;;;;;4.1;97.84082;94841.97;;;;
2020/02/01 04:03:20;;;;;;;3.8;3.35;;;;;;;4.1;97.84082;94841.97;;;;
2020/02/01 04:04:20;;;;;;;3.8;3.35;;;;;;;4.1;97.84082;94841.97;;;;
2020/02/01 04:05:21;;;;;;;3.8;3.35;;;;;;;4.1;97.84082;94841.97;;;;
2020/02/01 04:06:22;;;;;;;3.8;3.35;;;;;;;4.1;97.84082;94841.97;;;;
2020/02/01 04:07:22;;;;;;;3.8;3.35;;;;;;;4.1;97.84082;94841.97;;;;
2020/02/01 04:08:23;;;;;;;3.8;3.35;;;;;;;4.1;97.84082;94841.97;;;;
2020/02/01 04:09:23;;;;;;;3.8;3.35;;;;;;;4.1;97.84082;94841.97;;;;
2020/02/01 04:10:24;;;;;;;3.6;3.15;;;;;;;3.98;97.83496;94847.63;;;;
2020/02/01 04:11:24;;;;;;;3.6;3.15;;;;;;;3.98;97.83496;94847.63;;;;
2020/02/01 04:12:25;;;;;;;3.6;3.15;;;;;;;3.98;97.83496;94847.63;;;;
2020/02/01 04:13:25;;;;;;;3.6;3.15;;;;;;;3.98;97.83496;94847.63;;;;
2020/02/01 04:14:26;;;;;;;3.6;3.15;;;;;;;3.98;97.83496;94847.63;;;;
2020/02/01 04:15:26;;;;;;;3.6;3.15;;;;;;;3.98;97.83496;94847.63;;;;
2020/02/01 04:16:26;;;;;;;3.6;3.15;;;;;;;3.98;97.83496;94847.63;;;;
2020/02/01 04:17:27;;;;;;;3.6;3.15;;;;;;;3.98;97.83496;94847.63;;;;
2020/02/01 04:18:27;;;;;;;3.6;3.15;;;;;;;3.98;97.83496;94847.63;;;;
2020/02/01 04:19:28;;;;;;;3.6;3.15;;;;;;;3.98;97.83496;94847.63;;;;
2020/02/01 04:20:29;;;;;;;3.55;3.05;;;;;;;3.77;97.85059;94854.52;;;;
2020/02/01 04:21:30;;;;;;;3.55;3.05;;;;;;;3.77;97.85059;94854.52;;;;
2020/02/01 04:22:31;;;;;;;3.55;3.05;;;;;;;3.77;97.85059;94854.52;;;;
2020/02/01 04:23:31;;;;;;;3.55;3.05;;;;;;;3.77;97.85059;94854.52;;;;
2020/02/01 04:24:32;;;;;;;3.55;3.05;;;;;;;3.77;97.85059;94854.52;;;;
2020/02/01 04:25:33;;;;;;;3.55;3.05;;;;;;;3.77;97.85059;94854.52;;;;
2020/02/01 04:26:33;;;;;;;3.55;3.05;;;;;;;3.77;97.85059;94854.52;;;;
2020/02/01 04:27:34;;;;;;;3.55;3.05;;;;;;;3.77;97.85059;94854.52;;;;
2020/02/01 04:28:35;;;;;;;3.55;3.05;;;;;;;3.77;97.85059;94854.52;;;;
2020/02/01 04:29:35;;;;;;;3.55;3.05;;;;;;;3.77;97.85059;94854.52;;;;
2020/02/01 04:30:35;;;;;;;3.55;3.05;;;;;;;3.77;97.85059;94854.52;;;;
2020/02/01 04:31:36;;;;;;;3.6;3;;;;;;;3.61;97.9502;94843.74;;;;
2020/02/01 04:32:40;;;;;;;3.6;3;;;;;;;3.61;97.9502;94843.74;;;;
2020/02/01 04:33:41;;;;;;;3.6;3;;;;;;;3.61;97.9502;94843.74;;;;
2020/02/01 04:34:42;;;;;;;3.6;3;;;;;;;3.61;97.9502;94843.74;;;;
2020/02/01 04:35:42;;;;;;;3.6;3;;;;;;;3.61;97.9502;94843.74;;;;
2020/02/01 04:36:43;;;;;;;3.6;3;;;;;;;3.61;97.9502;94843.74;;;;
2020/02/01 04:37:43;;;;;;;3.6;3;;;;;;;3.61;97.9502;94843.74;;;;
2020/02/01 04:38:43;;;;;;;3.6;3;;;;;;;3.61;97.9502;94843.74;;;;
2020/02/01 04:39:44;;;;;;;3.6;3;;;;;;;3.61;97.9502;94843.74;;;;
2020/02/01 04:40:44;;;;;;;3.6;3;;;;;;;3.61;97.9502;94843.74;;;;
2020/02/01 04:41:50;;;;;;;3.85;3.45;;;;;;;3.41;97.95508;94839.39;;;;
2020/02/01 04:42:50;;;;;;;3.85;3.45;;;;;;;3.41;97.95508;94839.39;;;;
2020/02/01 04:43:51;;;;;;;3.85;3.45;;;;;;;3.41;97.95508;94839.39;;;;
2020/02/01 04:44:52;;;;;;;3.85;3.45;;;;;;;3.41;97.95508;94839.39;;;;
2020/02/01 04:45:52;;;;;;;3.85;3.45;;;;;;;3.41;97.95508;94839.39;;;;
2020/02/01 04:47:06;;;;;;;3.85;3.45;;;;;;;3.41;97.95508;94839.39;;;;
2020/02/01 04:48:08;;;;;;;3.85;3.45;;;;;;;3.41;97.95508;94839.39;;;;
2020/02/01 04:49:09;;;;;;;3.85;3.45;;;;;;;3.41;97.95508;94839.39;;;;
2020/02/01 04:50:09;;;;;;;3.85;3.45;;;;;;;3.41;97.95508;94839.39;;;;
2020/02/01 04:51:10;;;;;;;3.85;3.45;;;;;;;3.41;97.95508;94839.39;;;;
2020/02/01 04:52:10;;;;;;;4.8;3.85;;;;;;;3.37;98.27051;94838.56;;;;
2020/02/01 04:53:11;;;;;;;4.8;3.85;;;;;;;3.37;98.27051;94838.56;;;;
2020/02/01 04:54:11;;;;;;;4.8;3.85;;;;;;;3.37;98.27051;94838.56;;;;
2020/02/01 04:55:12;;;;;;;4.8;3.85;;;;;;;3.37;98.27051;94838.56;;;;
2020/02/01 04:56:14;;;;;;;4.8;3.85;;;;;;;3.37;98.27051;94838.56;;;;
2020/02/01 04:57:15;;;;;;;4.8;3.85;;;;;;;3.37;98.27051;94838.56;;;;
2020/02/01 04:58:17;;;;;;;4.8;3.85;;;;;;;3.37;98.27051;94838.56;;;;
2020/02/01 04:59:17;;;;;;;4.8;3.85;;;;;;;3.37;98.27051;94838.56;;;;
2020/02/01 05:00:28;;;;;;;4.8;3.85;;;;;;;3.37;98.27051;94838.56;;;;
2020/02/01 05:01:36;;;;;;;4.8;3.85;;;;;;;3.37;98.27051;94838.56;;;;
2020/02/01 05:02:37;;;;;;;4.8;3.85;;;;;;;3.37;98.27051;94838.56;;;;
2020/02/01 05:03:37;;;;;;;4.400001;4;;;;;;;3.35;98.25391;94826.44;;;;
2020/02/01 05:04:38;;;;;;;4.400001;4;;;;;;;3.35;98.25391;94826.44;;;;
2020/02/01 05:05:38;;;;;;;4.400001;4;;;;;;;3.35;98.25391;94826.44;;;;
2020/02/01 05:06:39;;;;;;;4.400001;4;;;;;;;3.35;98.25391;94826.44;;;;
2020/02/01 05:07:39;;;;;;;4.400001;4;;;;;;;3.35;98.25391;94826.44;;;;
2020/02/01 05:08:40;;;;;;;4.400001;4;;;;;;;3.35;98.25391;94826.44;;;;
2020/02/01 05:09:40;;;;;;;4.400001;4;;;;;;;3.35;98.25391;94826.44;;;;
2020/02/01 05:10:41;;;;;;;4.400001;4;;;;;;;3.35;98.25391;94826.44;;;;
2020/02/01 05:11:41;;;;;;;4.400001;4;;;;;;;3.35;98.25391;94826.44;;;;
2020/02/01 05:12:42;;;;;;;4.400001;4;;;;;;;3.35;98.25391;94826.44;;;;
2020/02/01 05:13:42;;;;;;;4.200001;3.6;;;;;;;3.43;98.4209;94818.16;;;;
2020/02/01 05:14:43;;;;;;;4.200001;3.6;;;;;;;3.43;98.4209;94818.16;;;;
2020/02/01 05:15:43;;;;;;;4.200001;3.6;;;;;;;3.43;98.4209;94818.16;;;;
2020/02/01 05:16:44;;;;;;;4.200001;3.6;;;;;;;3.43;98.4209;94818.16;;;;
2020/02/01 05:17:44;;;;;;;4.200001;3.6;;;;;;;3.43;98.4209;94818.16;;;;
2020/02/01 05:18:45;;;;;;;4.200001;3.6;;;;;;;3.43;98.4209;94818.16;;;;
2020/02/01 05:19:45;;;;;;;4.200001;3.6;;;;;;;3.43;98.4209;94818.16;;;;
2020/02/01 05:20:45;;;;;;;4.200001;3.6;;;;;;;3.43;98.4209;94818.16;;;;
2020/02/01 05:21:46;;;;;;;4.200001;3.6;;;;;;;3.43;98.4209;94818.16;;;;
2020/02/01 05:22:46;;;;;;;4.200001;3.6;;;;;;;3.43;98.4209;94818.16;;;;
2020/02/01 05:23:47;;;;;;;4.200001;3.6;;;;;;;3.43;98.4209;94818.16;;;;
2020/02/01 05:24:47;;;;;;;4.75;3.55;;;;;;;3.37;98.35352;94813.72;;;;
2020/02/01 05:25:48;;;;;;;4.75;3.55;;;;;;;3.37;98.35352;94813.72;;;;
2020/02/01 05:26:48;;;;;;;4.75;3.55;;;;;;;3.37;98.35352;94813.72;;;;
2020/02/01 05:27:49;;;;;;;4.75;3.55;;;;;;;3.37;98.35352;94813.72;;;;
2020/02/01 05:28:49;;;;;;;4.75;3.55;;;;;;;3.37;98.35352;94813.72;;;;
2020/02/01 05:29:50;;;;;;;4.75;3.55;;;;;;;3.37;98.35352;94813.72;;;;
2020/02/01 05:30:50;;;;;;;4.75;3.55;;;;;;;3.37;98.35352;94813.72;;;;
2020/02/01 05:31:51;;;;;;;4.75;3.55;;;;;;;3.37;98.35352;94813.72;;;;
2020/02/01 05:32:51;;;;;;;4.75;3.55;;;;;;;3.37;98.35352;94813.72;;;;
2020/02/01 05:33:51;;;;;;;4.75;3.55;;;;;;;3.37;98.35352;94813.72;;;;
2020/02/01 05:34:52;;;;;;;3.35;3.05;;;;;;;3.38;98.55664;94805.92;;;;
2020/02/01 05:35:52;;;;;;;3.35;3.05;;;;;;;3.38;98.55664;94805.92;;;;
2020/02/01 05:36:53;;;;;;;3.35;3.05;;;;;;;3.38;98.55664;94805.92;;;;
2020/02/01 05:37:53;;;;;;;3.35;3.05;;;;;;;3.38;98.55664;94805.92;;;;
2020/02/01 05:38:54;;;;;;;3.35;3.05;;;;;;;3.38;98.55664;94805.92;;;;
2020/02/01 05:39:54;;;;;;;3.35;3.05;;;;;;;3.38;98.55664;94805.92;;;;
2020/02/01 05:40:55;;;;;;;3.35;3.05;;;;;;;3.38;98.55664;94805.92;;;;
2020/02/01 05:41:55;;;;;;;3.35;3.05;;;;;;;3.38;98.55664;94805.92;;;;
2020/02/01 05:42:55;;;;;;;3.35;3.05;;;;;;;3.38;98.55664;94805.92;;;;
2020/02/01 05:43:56;;;;;;;3.35;3.05;;;;;;;3.38;98.55664;94805.92;;;;
2020/02/01 05:44:56;;;;;;;3.35;3.05;;;;;;;3.38;98.55664;94805.92;;;;
2020/02/01 05:45:57;;;;;;;2.8;2.5;;;;;;;3.31;98.41406;94792.67;;;;
2020/02/01 05:46:57;;;;;;;2.8;2.5;;;;;;;3.31;98.41406;94792.67;;;;
2020/02/01 05:47:58;;;;;;;2.8;2.5;;;;;;;3.31;98.41406;94792.67;;;;
2020/02/01 05:48:58;;;;;;;2.8;2.5;;;;;;;3.31;98.41406;94792.67;;;;
2020/02/01 05:49:59;;;;;;;2.8;2.5;;;;;;;3.31;98.41406;94792.67;;;;
2020/02/01 05:50:59;;;;;;;2.8;2.5;;;;;;;3.31;98.41406;94792.67;;;;
2020/02/01 05:52:00;;;;;;;2.8;2.5;;;;;;;3.31;98.41406;94792.67;;;;
2020/02/01 05:53:00;;;;;;;2.8;2.5;;;;;;;3.31;98.41406;94792.67;;;;
2020/02/01 05:54:01;;;;;;;2.8;2.5;;;;;;;3.31;98.41406;94792.67;;;;
2020/02/01 05:55:01;;;;;;;2.8;2.5;;;;;;;3.31;98.41406;94792.67;;;;
2020/02/01 05:56:01;;;;;;;3.4;2.45;;;;;;;3.23;98.46777;94790.72;;;;
2020/02/01 05:57:02;;;;;;;3.4;2.45;;;;;;;3.23;98.46777;94790.72;;;;
2020/02/01 05:58:02;;;;;;;3.4;2.45;;;;;;;3.23;98.46777;94790.72;;;;
2020/02/01 05:59:03;;;;;;;3.4;2.45;;;;;;;3.23;98.46777;94790.72;;;;
2020/02/01 06:00:03;;;;;;;3.4;2.45;;;;;;;3.23;98.46777;94790.72;;;;
2020/02/01 06:01:04;;;;;;;3.4;2.45;;;;;;;3.23;98.46777;94790.72;;;;
2020/02/01 06:02:04;;;;;;;3.4;2.45;;;;;;;3.23;98.46777;94790.72;;;;
2020/02/01 06:03:05;;;;;;;3.4;2.45;;;;;;;3.23;98.46777;94790.72;;;;
2020/02/01 06:04:05;;;;;;;3.4;2.45;;;;;;;3.23;98.46777;94790.72;;;;
2020/02/01 06:05:06;;;;;;;3.4;2.45;;;;;;;3.23;98.46777;94790.72;;;;